createdAt,value
2022-08-08T00:00:53.738Z,84.1
2022-08-08T00:05:00.175Z,84.1
2022-08-08T00:10:00.179Z,84.1
2022-08-08T00:15:04.962Z,83.5
2022-08-08T00:20:00.185Z,83.4
2022-08-08T00:25:00.174Z,83.4
2022-08-08T00:30:00.178Z,83.5
2022-08-08T00:35:00.189Z,82.8
2022-08-08T00:41:07.610Z,82.8
2022-08-08T00:45:00.164Z,82.8
2022-08-08T00:50:00.178Z,82.5
2022-08-08T00:55:00.174Z,82.2
2022-08-08T01:00:00.177Z,82.2
2022-08-08T01:05:00.165Z,81.9
2022-08-08T01:10:00.160Z,81.6
2022-08-08T01:15:00.375Z,81.6
2022-08-08T01:20:03.306Z,81.9
2022-08-08T01:25:00.164Z,82.2
2022-08-08T01:30:01.765Z,82.2
2022-08-08T01:35:00.202Z,82.8
2022-08-08T01:40:00.273Z,82.8
2022-08-08T01:45:00.341Z,83.4
2022-08-08T01:50:00.167Z,83.4
2022-08-08T01:55:25.561Z,83.4
2022-08-08T02:00:03.070Z,83.4
2022-08-08T02:05:01.302Z,83.4
2022-08-08T02:10:11.213Z,82.8
2022-08-08T02:15:00.904Z,82.8
2022-08-08T02:20:09.604Z,82.4
2022-08-08T02:25:00.176Z,82.5
2022-08-08T02:30:00.166Z,82.8
2022-08-08T02:35:08.616Z,82.8
2022-08-08T02:40:00.720Z,82.4
2022-08-08T02:45:00.176Z,82.8
2022-08-08T02:50:00.229Z,82.2
2022-08-08T02:55:00.191Z,82.8
2022-08-08T03:00:26.346Z,82.4
2022-08-08T03:05:09.171Z,82.5
2022-08-08T03:10:00.218Z,82.4
2022-08-08T03:15:58.739Z,82.7
2022-08-08T03:20:00.182Z,82.8
2022-08-08T03:25:00.212Z,82.7
2022-08-08T03:30:00.210Z,82.7
2022-08-08T03:35:00.168Z,82.8
2022-08-08T03:40:03.637Z,82.7
2022-08-08T03:45:00.164Z,82.7
2022-08-08T03:50:02.245Z,82.8
2022-08-08T03:55:10.334Z,83.1
2022-08-08T04:00:08.053Z,83
2022-08-08T04:05:00.171Z,83.4
2022-08-08T04:10:05.546Z,83.7
2022-08-08T04:15:00.170Z,84
2022-08-08T04:20:02.174Z,84
2022-08-08T04:25:00.163Z,84
2022-08-08T04:30:17.194Z,84.3
2022-08-08T04:35:00.174Z,84.3
2022-08-08T04:40:06.947Z,84.6
2022-08-08T04:45:00.162Z,84.3
2022-08-08T04:50:04.663Z,84
2022-08-08T04:55:00.164Z,84
2022-08-08T05:00:00.185Z,83.7
2022-08-08T05:05:00.191Z,83.1
2022-08-08T05:10:00.176Z,82.8
2022-08-08T05:15:00.195Z,82.5
2022-08-08T05:20:11.690Z,82.2
2022-08-08T05:25:00.174Z,81.6
2022-08-08T05:30:00.196Z,81
2022-08-08T05:35:04.837Z,81
2022-08-08T05:40:00.172Z,80.7
2022-08-08T05:45:00.622Z,80.1
2022-08-08T05:50:00.178Z,78.6
2022-08-08T05:55:04.599Z,78.6
2022-08-08T06:00:22.786Z,78
2022-08-08T06:05:00.159Z,76.2
2022-08-08T06:10:02.492Z,74.3
2022-08-08T06:15:00.180Z,73.1
2022-08-08T06:20:00.168Z,71.8
2022-08-08T06:25:00.174Z,71.2
2022-08-08T06:30:02.226Z,70.9
2022-08-08T06:36:04.548Z,69.3
2022-08-08T06:40:00.558Z,69
2022-08-08T06:45:00.166Z,68.7
2022-08-08T06:50:00.175Z,69.1
2022-08-08T06:55:00.181Z,68.1
2022-08-08T07:00:12.344Z,67.2
2022-08-08T07:05:00.361Z,66.3
2022-08-08T07:10:00.945Z,67.6
2022-08-08T07:15:00.181Z,65.1
2022-08-08T07:20:00.332Z,64.4
2022-08-08T07:25:00.179Z,64.5
2022-08-08T07:30:05.915Z,64.5
2022-08-08T07:35:02.626Z,63.6
2022-08-08T07:40:00.355Z,63.6
2022-08-08T07:45:00.310Z,62
2022-08-08T07:50:00.345Z,62.7
2022-08-08T07:55:00.298Z,61.7
2022-08-08T08:00:00.291Z,60.2
2022-08-08T08:05:00.207Z,60.8
2022-08-08T08:10:00.173Z,60.9
2022-08-08T08:15:04.369Z,60.1
2022-08-08T08:20:00.191Z,57.1
2022-08-08T08:25:08.205Z,57.8
2022-08-08T08:30:00.202Z,56.8
2022-08-08T08:35:00.173Z,55.9
2022-08-08T08:40:02.608Z,55.9
2022-08-08T08:45:00.194Z,55
2022-08-08T08:50:00.189Z,54.6
2022-08-08T08:55:00.200Z,53.4
2022-08-08T09:00:04.763Z,52.8
2022-08-08T09:05:00.177Z,52.1
2022-08-08T09:10:00.169Z,51.5
2022-08-08T09:15:00.171Z,49.6
2022-08-08T09:22:02.281Z,48
2022-08-08T09:25:00.226Z,47.3
2022-08-08T09:30:00.174Z,47
2022-08-08T09:35:01.541Z,49
2022-08-08T09:40:00.224Z,47.7
2022-08-08T09:45:04.061Z,47.4
2022-08-08T09:50:03.345Z,44.5
2022-08-08T09:55:00.181Z,44.8
2022-08-08T10:00:31.447Z,43.8
2022-08-08T10:05:00.241Z,45.1
2022-08-08T10:10:01.760Z,45.5
2022-08-08T10:15:00.174Z,44.5
2022-08-08T10:20:00.492Z,45.5
2022-08-08T10:25:01.439Z,44.8
2022-08-08T10:30:00.257Z,45.2
2022-08-08T10:35:01.306Z,43.9
2022-08-08T10:40:02.511Z,44.5
2022-08-08T10:45:00.175Z,43.9
2022-08-08T10:50:02.833Z,41.9
2022-08-08T10:55:00.167Z,43.9
2022-08-08T11:00:00.169Z,42
2022-08-08T11:05:00.183Z,43.6
2022-08-08T11:10:00.190Z,42
2022-08-08T11:15:00.300Z,40.7
2022-08-08T11:20:04.003Z,42.3
2022-08-08T11:25:00.194Z,42.7
2022-08-08T11:30:20.201Z,39.8
2022-08-08T11:35:24.439Z,41.1
2022-08-08T11:40:00.281Z,39.5
2022-08-08T11:45:00.198Z,40.1
2022-08-08T11:50:00.222Z,38.8
2022-08-08T11:55:00.186Z,39.5
2022-08-08T12:00:05.427Z,39.5
2022-08-08T12:05:00.216Z,38.8
2022-08-08T12:10:03.767Z,37.8
2022-08-08T12:15:00.174Z,39.5
2022-08-08T12:20:00.192Z,37.9
2022-08-08T12:25:00.202Z,36.9
2022-08-08T12:30:02.149Z,37.6
2022-08-08T12:35:12.987Z,36.9
2022-08-08T12:40:02.665Z,37.5
2022-08-08T12:45:00.170Z,36.3
2022-08-08T12:50:00.170Z,36.9
2022-08-08T12:55:00.189Z,36.3
2022-08-08T13:00:05.010Z,35.6
2022-08-08T13:05:00.271Z,35.3
2022-08-08T13:10:04.506Z,36.9
2022-08-08T13:15:00.337Z,36.3
2022-08-08T13:20:04.117Z,35.6
2022-08-08T13:25:00.189Z,37.6
2022-08-08T13:30:00.336Z,36.3
2022-08-08T13:35:00.169Z,35
2022-08-08T13:40:00.204Z,35.6
2022-08-08T13:45:00.190Z,36.6
2022-08-08T13:50:36.846Z,35.3
2022-08-08T13:55:00.184Z,36.3
2022-08-08T14:00:00.185Z,37.9
2022-08-08T14:05:04.869Z,36.6
2022-08-08T14:10:05.665Z,36
2022-08-08T14:15:00.177Z,36.3
2022-08-08T14:20:06.461Z,37.9
2022-08-08T14:25:00.245Z,36.6
2022-08-08T14:30:00.214Z,36.3
2022-08-08T14:35:00.185Z,34
2022-08-08T14:40:05.672Z,36.3
2022-08-08T14:45:00.463Z,36.3
2022-08-08T14:50:10.599Z,31.9
2022-08-08T14:55:00.198Z,30
2022-08-08T15:00:00.181Z,28.7
2022-08-08T15:05:11.462Z,29
2022-08-08T15:10:00.212Z,31.9
2022-08-08T15:15:00.177Z,32.5
2022-08-08T15:20:00.176Z,34.1
2022-08-08T15:25:00.187Z,33.1
2022-08-08T15:30:00.206Z,33
2022-08-08T15:35:00.197Z,34.3
2022-08-08T15:40:00.405Z,36.3
2022-08-08T15:45:00.234Z,36.3
2022-08-08T15:50:00.224Z,35.6
2022-08-08T15:55:00.179Z,36.9
2022-08-08T16:00:12.134Z,36.9
2022-08-08T16:05:00.180Z,36.9
2022-08-08T16:13:28.300Z,37.5
2022-08-08T16:15:00.402Z,35.9
2022-08-08T16:20:01.117Z,36.2
2022-08-08T16:25:05.894Z,35.9
2022-08-08T16:30:08.980Z,36.8
2022-08-08T16:35:00.177Z,36.8
2022-08-08T16:40:03.287Z,36.8
2022-08-08T16:45:00.184Z,38.8
2022-08-08T16:50:01.416Z,37.1
2022-08-08T16:55:34.086Z,35.5
2022-08-08T17:00:00.179Z,31.8
2022-08-08T17:05:00.169Z,27.3
2022-08-08T17:10:00.191Z,30.2
2022-08-08T17:15:00.186Z,32
2022-08-08T17:20:00.197Z,34.6
2022-08-08T17:25:00.176Z,36.5
2022-08-08T17:30:00.175Z,36.1
2022-08-08T17:35:52.398Z,36.4
2022-08-08T17:40:05.760Z,37.4
2022-08-08T17:45:00.181Z,38
2022-08-08T17:50:01.222Z,38.6
2022-08-08T17:55:00.305Z,39.9
2022-08-08T18:00:01.623Z,41.2
2022-08-08T18:05:00.607Z,41.2
2022-08-08T18:10:00.221Z,42.4
2022-08-08T18:15:00.168Z,42.7
2022-08-08T18:20:44.014Z,44.3
2022-08-08T18:25:00.184Z,44.3
2022-08-08T18:30:00.377Z,47.2
2022-08-08T18:35:00.213Z,49.4
2022-08-08T18:40:00.296Z,50.9
2022-08-08T18:45:00.171Z,53.1
2022-08-08T18:50:02.309Z,55
2022-08-08T18:55:09.444Z,56.9
2022-08-08T19:00:00.181Z,58.1
2022-08-08T19:05:00.174Z,59.4
2022-08-08T19:10:14.560Z,60.6
2022-08-08T19:15:00.175Z,61.2
2022-08-08T19:20:02.136Z,62.5
2022-08-08T19:26:01.139Z,63.1
2022-08-08T19:30:00.180Z,63.7
2022-08-08T19:35:00.176Z,64.3
2022-08-08T19:40:00.167Z,64.9
2022-08-08T19:45:05.129Z,65.2
2022-08-08T19:50:02.422Z,66.1
2022-08-08T19:55:04.404Z,66.1
2022-08-08T20:00:00.180Z,66.7
2022-08-08T20:05:00.167Z,66.7
2022-08-08T20:10:00.169Z,66.7
2022-08-08T20:15:00.173Z,67
2022-08-08T20:20:00.187Z,66.7
2022-08-08T20:25:00.586Z,67.9
2022-08-08T20:30:01.481Z,68
2022-08-08T20:35:01.533Z,67.9
2022-08-08T20:40:00.253Z,67.6
2022-08-08T20:45:00.194Z,67.9
2022-08-08T20:50:00.168Z,67.9
2022-08-08T20:55:00.182Z,68.5
2022-08-08T21:00:00.178Z,69.1
2022-08-08T21:05:00.299Z,69.7
2022-08-08T21:10:07.880Z,70.1
2022-08-08T21:15:06.619Z,70.3
2022-08-08T21:20:00.182Z,71
2022-08-08T21:25:00.172Z,71
2022-08-08T21:30:03.767Z,71
2022-08-08T21:36:17.233Z,70.3
2022-08-08T21:40:00.398Z,70.6
2022-08-08T21:45:20.858Z,71.6
2022-08-08T21:50:00.231Z,71.6
2022-08-08T21:55:02.450Z,72.2
2022-08-08T22:00:03.310Z,72.8
2022-08-08T22:05:00.181Z,73.4
2022-08-08T22:10:00.164Z,73.3
2022-08-08T22:15:00.181Z,73
2022-08-08T22:20:12.850Z,73.6
2022-08-08T22:25:00.172Z,74
2022-08-08T22:30:02.918Z,74.6
2022-08-08T22:35:00.170Z,75.2
2022-08-08T22:40:02.019Z,74.9
2022-08-08T22:45:00.837Z,75.2
2022-08-08T22:50:01.045Z,76.2
2022-08-08T22:55:05.335Z,75.2
2022-08-08T23:00:01.230Z,75.5
2022-08-08T23:05:05.265Z,76.5
2022-08-08T23:10:00.356Z,75.8
2022-08-08T23:16:36.565Z,76.5
2022-08-08T23:20:00.261Z,76.2
2022-08-08T23:25:00.225Z,76.5
2022-08-08T23:30:00.182Z,77.7
2022-08-08T23:35:00.165Z,77.8
2022-08-08T23:40:00.282Z,77.8
2022-08-08T23:45:00.173Z,77.1
2022-08-08T23:50:02.785Z,77.1
2022-08-08T23:55:14.445Z,76.5
